Java Sea — WDB5557 — position and weather

sailwx.info

Track history (hours):
 
Tides and Currents Weather Stations Pressure Air Temp Water Temp Dewpoint Dewpoint Depression Visibility Wind Speed Wind Dir Waves Ship Positions

Java Sea

Owner: Kirby Offshore Marine, LLC, Staten Island, NY. More information available from US FCC via Universal Licensing System and Coast Guard Vessel Documentation Center.

Last reported at 2015-Feb-25 18:00 UTC. Time now 2015-Mar-01 06:55 UTC.
Position N 59°12' W 150°18'.

Length 129 m; draft 4.2 m.

Type: Tug. MMSI: 366910940.

Wind from 030 at 8 knots

Waves 0.5 meters (2 feet)

Barometer 1028.0 mb
Air temperature 6.1 ° C
Visibility: greater than 5.4 NM

Date/timePositionNaut miles runAvg speedWind from/ knotsBaromVisibWave heightAir tempDewpointWater temp
2015-Feb-25 18:00N 59°12' W 150°18'   030 / 81028.0 5.4 0.5 6.1
2015-Feb-18 02:33N 58°18' W 136°11'1211.2
2015-Feb-18 01:32N 58°19' W 135°49'260 9.5
2015-Feb-16 22:11N 54°52' W 131°03'710.9
2015-Feb-16 21:33N 54°46' W 130°58'1211.9
2015-Feb-16 20:33N 54°37' W 130°44'1111.5
2015-Feb-16 19:33N 54°26' W 130°38'1312.4
2015-Feb-16 18:33N 54°14' W 130°30'1212.1
2015-Feb-16 17:33N 54°05' W 130°17'178 9.9
2015-Feb-15 23:33N 51°31' W 127°50'1210.9
2015-Feb-15 22:28N 51°19' W 127°54'1111.8
2015-Feb-15 21:33N 51°09' W 127°50'1312.6
2015-Feb-15 20:33N 51°00' W 127°35'1212.3
2015-Feb-15 19:33N 50°52' W 127°20'1211.1
2015-Feb-15 18:31N 50°47' W 127°04'  
Track history (hours):
 
Tides and Currents Weather Stations Pressure Air Temp Water Temp Dewpoint Dewpoint Depression Visibility Wind Speed Wind Dir Waves Ship Positions

Java Sea

Owner: Kirby Offshore Marine, LLC, Staten Island, NY. More information available from US FCC via Universal Licensing System and Coast Guard Vessel Documentation Center.

Last reported at 2015-Feb-25 18:00 UTC. Time now 2015-Mar-01 06:55 UTC.
Position N 59°12' W 150°18'.

Length 129 m; draft 4.2 m.

Type: Tug. MMSI: 366910940.

Wind from 030 at 8 knots

Waves 0.5 meters (2 feet)

Barometer 1028.0 mb
Air temperature 6.1 ° C
Visibility: greater than 5.4 NM

Date/timePositionNaut miles runAvg speedWind from/ knotsBaromVisibWave heightAir tempDewpointWater temp
2015-Feb-25 18:00N 59°12' W 150°18'   030 / 81028.0 5.4 0.5 6.1
2015-Feb-18 02:33N 58°18' W 136°11'1211.2
2015-Feb-18 01:32N 58°19' W 135°49'260 9.5
2015-Feb-16 22:11N 54°52' W 131°03'710.9
2015-Feb-16 21:33N 54°46' W 130°58'1211.9
2015-Feb-16 20:33N 54°37' W 130°44'1111.5
2015-Feb-16 19:33N 54°26' W 130°38'1312.4
2015-Feb-16 18:33N 54°14' W 130°30'1212.1
2015-Feb-16 17:33N 54°05' W 130°17'178 9.9
2015-Feb-15 23:33N 51°31' W 127°50'1210.9
2015-Feb-15 22:28N 51°19' W 127°54'1111.8
2015-Feb-15 21:33N 51°09' W 127°50'1312.6
2015-Feb-15 20:33N 51°00' W 127°35'1212.3
2015-Feb-15 19:33N 50°52' W 127°20'1211.1
2015-Feb-15 18:31N 50°47' W 127°04'  

Dump ship's entire track history